Time;durP1;ratioP1;P1;durP2;ratioP2;P2;SDS_P1;SDS_P2;PMS_P1;PMS_P2;Temp;Humidity;BMP_temperature;BMP_pressure;BME280_temperature;BME280_humidity;BME280_pressure;Samples;Min_cycle;Max_cycle;Signal;HPM_P1;HPM_P2
2024/01/24 00:00:26;;;;;;;0.63;0.63;;;12.40;99.90;;;;;;5097203;27;20040;-69
2024/01/24 00:02:52;;;;;;;1.20;0.57;;;12.30;99.90;;;;;;5095961;28;20386;-70
2024/01/24 00:05:17;;;;;;;0.28;0.10;;;12.30;99.90;;;;;;5089329;28;20168;-69
2024/01/24 00:07:43;;;;;;;0.10;0.10;;;12.40;99.90;;;;;;5093047;28;20379;-73
2024/01/24 00:10:10;;;;;;;1.52;0.50;;;12.40;99.90;;;;;;5093093;28;20580;-69
2024/01/24 00:12:36;;;;;;;0.20;0.10;;;12.50;99.90;;;;;;5091770;27;20039;-69
2024/01/24 00:15:01;;;;;;;0.20;0.20;;;12.50;99.90;;;;;;5080987;28;20221;-70
2024/01/24 00:17:27;;;;;;;0.15;0.15;;;12.50;99.90;;;;;;5099134;28;20035;-73
2024/01/24 00:19:52;;;;;;;0.13;0.13;;;12.60;99.90;;;;;;5089336;27;20409;-70
2024/01/24 00:22:18;;;;;;;0.52;0.17;;;12.60;99.90;;;;;;5086730;28;20031;-71
2024/01/24 00:24:43;;;;;;;0.20;0.20;;;12.60;99.90;;;;;;5088606;28;20132;-72
2024/01/24 00:27:09;;;;;;;0.15;0.15;;;12.70;99.90;;;;;;5099448;27;20042;-69
2024/01/24 00:29:34;;;;;;;0.20;0.20;;;12.70;99.90;;;;;;5103504;27;20040;-71
2024/01/24 00:32:00;;;;;;;0.85;0.40;;;12.70;99.90;;;;;;5107944;27;20428;-70
2024/01/24 00:34:25;;;;;;;0.57;0.57;;;12.70;99.90;;;;;;5092878;28;20042;-69
2024/01/24 00:36:51;;;;;;;0.10;0.10;;;12.70;99.90;;;;;;5090701;28;20051;-73
2024/01/24 00:39:17;;;;;;;0.43;0.30;;;12.70;99.90;;;;;;5091946;28;20042;-74
2024/01/24 00:41:42;;;;;;;0.65;0.20;;;12.70;99.90;;;;;;5089711;28;20522;-70
2024/01/24 00:44:08;;;;;;;0.85;0.65;;;12.70;99.90;;;;;;5097305;27;20491;-69
2024/01/24 00:46:33;;;;;;;0.20;0.20;;;12.70;99.90;;;;;;5088864;28;20421;-74
2024/01/24 00:49:00;;;;;;;0.10;0.10;;;12.70;99.90;;;;;;5091038;28;20328;-70
2024/01/24 00:51:25;;;;;;;0.15;0.15;;;12.80;99.90;;;;;;5093065;27;20039;-71
2024/01/24 00:53:54;;;;;;;0.10;0.10;;;12.80;99.90;;;;;;5094303;27;20120;-71
2024/01/24 00:56:20;;;;;;;0.10;0.10;;;12.70;99.90;;;;;;5093969;27;20460;-70
2024/01/24 00:58:46;;;;;;;0.10;0.10;;;12.70;99.90;;;;;;5091706;27;20162;-71
2024/01/24 01:01:11;;;;;;;0.28;0.22;;;12.70;99.90;;;;;;5090933;27;20047;-71
2024/01/24 01:03:38;;;;;;;0.22;0.10;;;12.70;99.90;;;;;;5070245;28;20092;-72
2024/01/24 01:06:04;;;;;;;0.15;0.15;;;12.60;99.90;;;;;;5096127;28;20054;-69
2024/01/24 01:08:30;;;;;;;0.20;0.20;;;12.70;99.90;;;;;;5092407;28;20122;-72
2024/01/24 01:10:55;;;;;;;0.80;0.40;;;12.60;99.90;;;;;;5089823;28;20119;-69
2024/01/24 01:13:21;;;;;;;0.00;0.00;;;12.60;99.90;;;;;;5088828;28;20487;-70
2024/01/24 01:15:47;;;;;;;0.10;0.10;;;12.60;99.90;;;;;;5092668;27;20036;-69
2024/01/24 01:18:12;;;;;;;0.10;0.10;;;12.60;99.90;;;;;;5090156;28;20070;-70
2024/01/24 01:20:38;;;;;;;0.00;0.00;;;12.60;99.90;;;;;;5089116;28;20067;-72
2024/01/24 01:23:04;;;;;;;0.10;0.10;;;12.50;99.90;;;;;;5090554;28;20413;-67
2024/01/24 01:25:29;;;;;;;0.00;0.00;;;12.50;99.90;;;;;;5090412;28;20459;-70
2024/01/24 01:27:55;;;;;;;0.15;0.15;;;12.50;99.90;;;;;;5094933;28;20122;-72
2024/01/24 01:30:23;;;;;;;1.15;0.70;;;12.50;99.90;;;;;;5090250;28;20219;-69
2024/01/24 01:32:49;;;;;;;0.05;0.05;;;12.50;99.90;;;;;;5091984;28;20045;-73
2024/01/24 01:35:14;;;;;;;0.03;0.03;;;12.50;99.90;;;;;;5086723;28;20040;-73
2024/01/24 01:37:40;;;;;;;0.00;0.00;;;12.60;99.90;;;;;;5091793;28;20114;-70
2024/01/24 01:40:07;;;;;;;0.00;0.00;;;12.60;99.90;;;;;;5092894;28;20501;-70
2024/01/24 01:42:32;;;;;;;0.00;0.00;;;12.50;99.90;;;;;;5093892;28;20382;-68
2024/01/24 01:44:58;;;;;;;0.00;0.00;;;12.60;99.90;;;;;;5095164;28;20039;-68
2024/01/24 01:47:24;;;;;;;0.70;0.20;;;12.50;99.90;;;;;;5093229;28;20462;-70
2024/01/24 01:49:50;;;;;;;1.08;0.85;;;12.50;99.90;;;;;;5096111;28;20044;-73
2024/01/24 01:52:16;;;;;;;0.00;0.00;;;12.50;99.90;;;;;;5095373;28;20039;-69
2024/01/24 01:54:42;;;;;;;0.00;0.00;;;12.40;99.90;;;;;;5078422;28;20040;-70
2024/01/24 01:57:11;;;;;;;0.22;0.22;;;12.40;99.90;;;;;;5091077;28;20032;-71
2024/01/24 01:59:40;;;;;;;0.10;0.10;;;12.40;99.90;;;;;;5093650;28;20035;-68
2024/01/24 02:02:06;;;;;;;0.10;0.10;;;12.40;99.90;;;;;;5087360;28;20031;-71
2024/01/24 02:04:32;;;;;;;0.03;0.03;;;12.40;99.90;;;;;;5092941;28;20062;-69
2024/01/24 02:06:58;;;;;;;0.10;0.10;;;12.40;99.90;;;;;;5089287;28;20466;-70
2024/01/24 02:09:24;;;;;;;0.10;0.10;;;12.30;99.90;;;;;;5093352;28;20458;-69
2024/01/24 02:11:50;;;;;;;0.08;0.08;;;12.40;99.90;;;;;;5091643;28;20129;-75
2024/01/24 02:14:15;;;;;;;0.10;0.10;;;12.40;99.90;;;;;;5087719;28;20430;-72
2024/01/24 02:16:41;;;;;;;0.10;0.10;;;12.50;99.90;;;;;;5090810;28;20048;-75
2024/01/24 02:19:07;;;;;;;0.38;0.13;;;12.50;99.90;;;;;;5092852;28;20036;-72
2024/01/24 02:21:33;;;;;;;0.10;0.10;;;12.40;99.90;;;;;;5092577;28;20054;-71
2024/01/24 02:24:03;;;;;;;0.00;0.00;;;12.40;99.90;;;;;;5089361;28;20035;-70
2024/01/24 02:26:28;;;;;;;0.10;0.10;;;12.30;99.90;;;;;;5105570;28;20054;-71
2024/01/24 02:28:54;;;;;;;0.20;0.10;;;12.00;99.90;;;;;;5094142;28;20039;-71
2024/01/24 02:31:19;;;;;;;0.45;0.45;;;12.00;99.90;;;;;;5083204;28;20121;-71
2024/01/24 02:33:46;;;;;;;0.10;0.10;;;11.90;99.90;;;;;;5092518;28;20556;-71
2024/01/24 02:36:14;;;;;;;0.10;0.10;;;11.80;99.90;;;;;;5085876;28;20082;-71
2024/01/24 02:38:41;;;;;;;0.17;0.10;;;11.80;99.90;;;;;;5078364;28;20088;-70
2024/01/24 02:41:07;;;;;;;0.00;0.00;;;11.80;99.90;;;;;;5107307;28;20067;-69
2024/01/24 02:43:33;;;;;;;0.10;0.10;;;11.80;99.90;;;;;;5089020;28;20063;-71
2024/01/24 02:45:59;;;;;;;0.25;0.10;;;11.80;99.90;;;;;;5081239;28;20423;-70
2024/01/24 02:48:26;;;;;;;0.38;0.38;;;11.80;99.90;;;;;;5094082;28;20045;-71
2024/01/24 02:50:52;;;;;;;0.05;0.05;;;11.90;99.90;;;;;;5094364;28;20314;-69
2024/01/24 02:53:17;;;;;;;0.10;0.10;;;11.80;99.90;;;;;;5091876;28;20049;-72
2024/01/24 02:55:43;;;;;;;0.40;0.40;;;11.70;99.90;;;;;;5091103;28;20046;-73
2024/01/24 02:58:09;;;;;;;0.00;0.00;;;11.70;99.90;;;;;;5092948;28;20502;-70
2024/01/24 03:00:35;;;;;;;3.35;0.13;;;11.60;99.90;;;;;;5106621;28;20032;-70
2024/01/24 03:03:01;;;;;;;0.45;0.45;;;11.50;99.90;;;;;;5095167;27;20046;-71
2024/01/24 03:05:26;;;;;;;30.98;1.38;;;11.40;99.90;;;;;;5095778;27;20043;-72
2024/01/24 03:07:52;;;;;;;0.00;0.00;;;11.40;99.90;;;;;;5095866;27;20042;-71
2024/01/24 03:10:17;;;;;;;0.13;0.13;;;11.30;99.90;;;;;;5092375;28;20040;-71
2024/01/24 03:12:43;;;;;;;0.10;0.10;;;11.30;99.90;;;;;;5093414;27;20039;-67
2024/01/24 03:15:09;;;;;;;0.55;0.55;;;11.30;99.90;;;;;;5095191;27;20039;-68
2024/01/24 03:17:34;;;;;;;0.10;0.10;;;11.40;99.90;;;;;;5093055;27;20077;-74
2024/01/24 03:20:00;;;;;;;0.08;0.08;;;11.30;99.90;;;;;;5095135;27;20462;-72
2024/01/24 03:22:25;;;;;;;0.00;0.00;;;11.30;99.90;;;;;;5091895;28;20090;-70
2024/01/24 03:24:52;;;;;;;6.80;0.82;;;11.30;99.90;;;;;;5080271;28;20035;-70
2024/01/24 03:27:17;;;;;;;0.20;0.20;;;11.30;99.90;;;;;;5089054;28;20035;-70
2024/01/24 03:29:44;;;;;;;0.00;0.00;;;11.30;99.90;;;;;;5079277;27;20039;-68
2024/01/24 03:32:09;;;;;;;0.10;0.10;;;11.30;99.90;;;;;;5094437;27;20051;-73
2024/01/24 03:34:35;;;;;;;1.08;0.98;;;11.30;99.90;;;;;;5077871;27;20055;-70
2024/01/24 03:37:01;;;;;;;0.10;0.10;;;11.20;99.90;;;;;;5088246;28;20044;-71
2024/01/24 03:39:27;;;;;;;0.57;0.57;;;11.20;99.90;;;;;;5100992;27;20035;-72
2024/01/24 03:41:52;;;;;;;1.38;1.00;;;11.20;99.90;;;;;;5089248;28;20036;-72
2024/01/24 03:44:18;;;;;;;0.25;0.25;;;11.10;99.90;;;;;;5096577;28;20031;-70
2024/01/24 03:46:44;;;;;;;0.10;0.10;;;11.10;99.90;;;;;;5090190;27;20075;-75
2024/01/24 03:49:09;;;;;;;1.73;0.47;;;11.10;99.90;;;;;;5095538;27;20046;-73
2024/01/24 03:51:35;;;;;;;0.10;0.10;;;11.10;99.90;;;;;;5092296;27;20466;-69
2024/01/24 03:54:00;;;;;;;0.47;0.20;;;11.00;99.90;;;;;;5094106;27;20101;-73
2024/01/24 03:56:26;;;;;;;0.63;0.30;;;11.10;99.90;;;;;;5085943;27;20393;-71
2024/01/24 03:58:51;;;;;;;0.57;0.17;;;11.10;99.90;;;;;;5093015;27;20477;-69
2024/01/24 04:01:18;;;;;;;0.38;0.30;;;11.20;99.90;;;;;;5091923;28;20096;-73
2024/01/24 04:03:43;;;;;;;1.70;0.63;;;11.20;99.90;;;;;;5094899;27;20470;-70
2024/01/24 04:06:09;;;;;;;0.10;0.03;;;11.20;99.90;;;;;;5079683;27;20039;-70
2024/01/24 04:08:35;;;;;;;9.43;0.40;;;11.20;99.90;;;;;;5094267;28;20032;-69
2024/01/24 04:11:00;;;;;;;0.40;0.40;;;11.10;99.90;;;;;;5093478;27;20036;-72
2024/01/24 04:13:26;;;;;;;0.75;0.20;;;11.20;99.90;;;;;;5092402;28;20379;-70
2024/01/24 04:15:51;;;;;;;0.32;0.32;;;11.30;99.90;;;;;;5094004;28;20083;-69
2024/01/24 04:18:17;;;;;;;0.10;0.10;;;11.30;99.90;;;;;;5092405;28;20063;-69
2024/01/24 04:20:42;;;;;;;0.10;0.10;;;11.40;99.90;;;;;;5093230;27;20497;-68
2024/01/24 04:23:08;;;;;;;0.90;0.90;;;11.30;99.90;;;;;;5097283;27;20066;-69
2024/01/24 04:25:34;;;;;;;0.88;0.75;;;11.40;99.90;;;;;;5095634;28;20043;-71
2024/01/24 04:27:59;;;;;;;3.90;0.70;;;11.40;99.90;;;;;;5095439;28;20040;-69
2024/01/24 04:30:25;;;;;;;0.00;0.00;;;11.40;99.90;;;;;;5093777;27;20039;-70
2024/01/24 04:32:50;;;;;;;0.10;0.10;;;11.40;99.90;;;;;;5076702;28;20130;-70
2024/01/24 04:35:17;;;;;;;0.03;0.03;;;11.40;99.90;;;;;;5095026;28;20062;-71
2024/01/24 04:37:43;;;;;;;1.30;0.17;;;11.40;99.90;;;;;;5093433;28;20474;-70
2024/01/24 04:40:10;;;;;;;0.22;0.22;;;11.40;99.90;;;;;;5094396;28;20036;-69
2024/01/24 04:42:35;;;;;;;0.03;0.03;;;11.40;99.90;;;;;;5088486;28;20050;-72
2024/01/24 04:45:01;;;;;;;0.10;0.10;;;11.40;99.90;;;;;;5093145;28;20498;-75
2024/01/24 04:47:26;;;;;;;0.10;0.10;;;11.40;99.90;;;;;;5088881;27;20162;-69
2024/01/24 04:49:52;;;;;;;1.45;0.75;;;11.30;99.90;;;;;;5092084;28;20035;-70
2024/01/24 04:52:18;;;;;;;0.10;0.10;;;11.30;99.90;;;;;;5091811;28;20043;-71
2024/01/24 04:54:43;;;;;;;0.00;0.00;;;11.30;99.90;;;;;;5095948;27;20035;-70
2024/01/24 04:57:09;;;;;;;1.40;0.30;;;11.20;99.90;;;;;;5090907;27;20043;-74
2024/01/24 04:59:35;;;;;;;0.25;0.13;;;11.20;99.90;;;;;;5093456;27;20032;-69
2024/01/24 05:02:03;;;;;;;1.02;0.95;;;11.20;99.90;;;;;;5089246;27;20039;-72
2024/01/24 05:04:29;;;;;;;2.33;0.38;;;11.20;99.90;;;;;;5093466;27;20043;-69
2024/01/24 05:06:54;;;;;;;1.92;0.70;;;11.20;99.90;;;;;;5089132;28;20066;-71
2024/01/24 05:09:20;;;;;;;0.52;0.52;;;11.20;99.90;;;;;;5093735;28;20585;-72
2024/01/24 05:11:45;;;;;;;0.35;0.35;;;11.20;99.90;;;;;;5087948;27;20039;-69
2024/01/24 05:14:11;;;;;;;0.88;0.35;;;11.10;99.90;;;;;;5095107;28;20041;-69
2024/01/24 05:16:43;;;;;;;0.65;0.65;;;11.00;99.90;;;;;;5093688;27;20035;-74
2024/01/24 05:19:08;;;;;;;0.10;0.10;;;11.00;99.90;;;;;;5096250;28;20042;-70
2024/01/24 05:21:41;;;;;;;0.55;0.50;;;11.00;99.90;;;;;;5090140;28;20035;-67
2024/01/24 05:24:08;;;;;;;1.88;0.20;;;10.90;99.90;;;;;;5092510;28;20035;-72
2024/01/24 05:26:35;;;;;;;0.52;0.52;;;10.80;99.90;;;;;;5090576;28;20043;-70
2024/01/24 05:29:01;;;;;;;0.85;0.85;;;10.70;99.90;;;;;;5087413;28;20130;-69
2024/01/24 05:31:26;;;;;;;0.30;0.30;;;10.60;99.90;;;;;;5089048;28;20551;-68
2024/01/24 05:33:55;;;;;;;0.10;0.10;;;10.70;99.90;;;;;;5091231;28;20042;-68
2024/01/24 05:36:21;;;;;;;0.28;0.28;;;10.60;99.90;;;;;;5069237;28;20036;-74
2024/01/24 05:38:46;;;;;;;0.17;0.17;;;10.60;99.90;;;;;;5088734;28;20044;-69
2024/01/24 05:41:14;;;;;;;0.63;0.63;;;10.50;99.90;;;;;;5087967;28;20038;-71
2024/01/24 05:43:39;;;;;;;0.40;0.22;;;10.40;99.90;;;;;;5107421;27;20044;-69
2024/01/24 05:46:05;;;;;;;0.10;0.10;;;10.40;99.90;;;;;;5088104;28;20040;-67
2024/01/24 05:48:31;;;;;;;2.20;0.28;;;10.40;99.90;;;;;;5090656;28;20097;-73
2024/01/24 05:50:56;;;;;;;0.85;0.52;;;10.50;99.90;;;;;;5088447;28;20724;-68
2024/01/24 05:53:23;;;;;;;0.63;0.63;;;10.40;99.90;;;;;;5092766;28;20451;-70
2024/01/24 05:55:48;;;;;;;2.38;0.57;;;10.30;99.90;;;;;;5089925;28;20044;-68
2024/01/24 05:58:14;;;;;;;0.40;0.40;;;10.30;99.90;;;;;;5090463;28;20040;-69
2024/01/24 06:00:39;;;;;;;1.15;0.57;;;10.30;99.90;;;;;;5099459;28;20054;-68
2024/01/24 06:03:07;;;;;;;3.20;0.90;;;10.20;99.90;;;;;;5080329;28;20123;-69
2024/01/24 06:05:33;;;;;;;3.20;1.13;;;10.20;99.90;;;;;;5101770;28;20397;-70
2024/01/24 06:07:58;;;;;;;0.20;0.20;;;10.30;99.90;;;;;;5086400;28;20044;-68
2024/01/24 06:10:24;;;;;;;0.68;0.68;;;10.40;99.90;;;;;;5091963;28;20078;-67
2024/01/24 06:12:49;;;;;;;3.53;0.45;;;10.50;99.90;;;;;;5091525;28;20039;-68
2024/01/24 06:15:15;;;;;;;7.05;0.75;;;10.30;99.90;;;;;;5092166;28;20369;-68
2024/01/24 06:17:41;;;;;;;1.27;0.40;;;10.30;99.90;;;;;;5088604;28;20040;-71
2024/01/24 06:20:08;;;;;;;0.50;0.50;;;10.30;99.90;;;;;;5095510;28;20036;-70
2024/01/24 06:22:34;;;;;;;4.30;0.43;;;10.30;99.90;;;;;;5092251;28;20040;-70
2024/01/24 06:25:02;;;;;;;12.60;1.40;;;10.30;99.90;;;;;;5090976;28;20042;-69
2024/01/24 06:27:28;;;;;;;6.88;0.85;;;10.30;99.90;;;;;;5088635;28;20046;-65
2024/01/24 06:29:53;;;;;;;1.85;0.68;;;10.30;99.90;;;;;;5085640;28;20032;-72
2024/01/24 06:32:19;;;;;;;9.35;0.80;;;10.30;99.90;;;;;;5073257;28;20128;-72
2024/01/24 06:34:44;;;;;;;14.60;1.27;;;10.30;99.90;;;;;;5097162;28;20036;-69
2024/01/24 06:37:10;;;;;;;0.40;0.40;;;10.30;99.90;;;;;;5096331;27;20093;-67
2024/01/24 06:39:35;;;;;;;2.75;1.08;;;10.30;99.90;;;;;;5079478;28;20498;-70
2024/01/24 06:42:01;;;;;;;0.10;0.10;;;10.20;99.90;;;;;;5096452;28;20040;-69
2024/01/24 06:44:26;;;;;;;0.85;0.85;;;10.30;99.90;;;;;;5092304;28;20028;-72
2024/01/24 06:46:54;;;;;;;1.05;0.55;;;10.30;99.90;;;;;;5077541;28;20047;-73
2024/01/24 06:49:20;;;;;;;0.57;0.57;;;10.20;99.90;;;;;;5085963;28;20044;-71
2024/01/24 06:51:45;;;;;;;2.20;0.52;;;10.20;99.90;;;;;;5079046;28;20042;-70
2024/01/24 06:54:12;;;;;;;4.47;0.30;;;10.30;99.90;;;;;;5089814;28;20036;-69
2024/01/24 06:56:38;;;;;;;2.38;0.32;;;10.20;99.90;;;;;;5094609;28;20058;-68
2024/01/24 06:59:03;;;;;;;0.30;0.30;;;10.20;99.90;;;;;;5076503;28;20036;-71
2024/01/24 07:01:29;;;;;;;2.05;0.85;;;10.30;99.90;;;;;;5099805;27;20043;-71
2024/01/24 07:03:54;;;;;;;0.50;0.50;;;10.30;99.90;;;;;;5088754;28;20043;-69
2024/01/24 07:06:20;;;;;;;2.00;1.27;;;10.40;99.90;;;;;;5088438;28;20051;-70
2024/01/24 07:08:45;;;;;;;2.95;1.27;;;10.30;99.90;;;;;;5085158;28;20043;-68
2024/01/24 07:11:11;;;;;;;0.90;0.40;;;10.30;99.90;;;;;;5105565;27;20490;-67
2024/01/24 07:13:37;;;;;;;2.95;0.40;;;10.30;99.90;;;;;;5091442;27;20535;-69
2024/01/24 07:16:04;;;;;;;2.17;0.82;;;10.30;99.90;;;;;;5091410;27;20031;-70
2024/01/24 07:18:33;;;;;;;0.55;0.55;;;10.30;99.90;;;;;;5093838;27;20434;-71
2024/01/24 07:21:03;;;;;;;1.00;0.73;;;10.30;99.90;;;;;;5095944;27;20078;-71
2024/01/24 07:23:29;;;;;;;0.30;0.30;;;10.30;99.90;;;;;;5080824;28;20071;-69
2024/01/24 07:25:54;;;;;;;3.92;0.85;;;10.30;99.90;;;;;;5092696;27;20446;-68
2024/01/24 07:28:20;;;;;;;3.10;1.60;;;10.30;99.90;;;;;;5094888;28;20047;-71
2024/01/24 07:30:46;;;;;;;0.55;0.43;;;10.30;99.90;;;;;;5092003;27;20044;-72
2024/01/24 07:33:12;;;;;;;0.55;0.55;;;10.30;99.90;;;;;;5094772;27;20101;-68
2024/01/24 07:35:38;;;;;;;13.57;0.65;;;10.30;99.90;;;;;;5095316;28;20048;-70
2024/01/24 07:38:03;;;;;;;0.40;0.35;;;10.30;99.90;;;;;;5090537;28;20371;-71
2024/01/24 07:40:29;;;;;;;0.77;0.77;;;10.30;99.90;;;;;;5091422;27;20038;-69
2024/01/24 07:42:55;;;;;;;1.52;0.98;;;10.20;99.90;;;;;;5091680;27;20028;-67
2024/01/24 07:45:20;;;;;;;1.92;1.25;;;10.20;99.90;;;;;;5095380;28;20043;-70
2024/01/24 07:47:47;;;;;;;4.47;0.45;;;10.30;99.90;;;;;;5093194;28;20043;-71
2024/01/24 07:50:13;;;;;;;0.40;0.40;;;10.20;99.90;;;;;;5094372;28;20448;-71
2024/01/24 07:52:38;;;;;;;2.33;0.75;;;10.20;99.90;;;;;;5092157;27;20047;-71
2024/01/24 07:55:05;;;;;;;1.55;1.08;;;10.10;99.90;;;;;;5093403;27;20044;-68
2024/01/24 07:57:30;;;;;;;0.70;0.70;;;10.10;99.90;;;;;;5089413;28;20035;-70
2024/01/24 07:59:56;;;;;;;9.82;0.43;;;10.10;99.90;;;;;;5092825;28;20135;-69
2024/01/24 08:02:23;;;;;;;4.30;2.15;;;10.10;99.90;;;;;;5090481;28;20484;-68
2024/01/24 08:04:48;;;;;;;1.08;0.60;;;10.10;99.90;;;;;;5095598;27;20089;-71
2024/01/24 08:07:14;;;;;;;0.10;0.10;;;10.10;99.90;;;;;;5090422;28;20390;-69
2024/01/24 08:09:40;;;;;;;0.10;0.10;;;10.10;99.90;;;;;;5094514;28;20089;-69
2024/01/24 08:12:05;;;;;;;0.30;0.30;;;10.10;99.90;;;;;;5094190;27;22493;-66
2024/01/24 08:14:31;;;;;;;0.40;0.40;;;10.10;99.90;;;;;;5098757;28;20405;-67
2024/01/24 08:17:05;;;;;;;16.58;1.05;;;10.10;99.90;;;;;;5089616;28;20390;-70
2024/01/24 08:19:31;;;;;;;0.77;0.77;;;10.10;99.90;;;;;;5080568;28;20036;-68
2024/01/24 08:21:57;;;;;;;7.43;0.65;;;10.10;99.90;;;;;;5078267;27;20042;-66
2024/01/24 08:24:22;;;;;;;8.48;0.57;;;10.10;99.90;;;;;;5092889;28;20036;-71
2024/01/24 08:26:49;;;;;;;0.32;0.32;;;10.10;99.90;;;;;;5090300;28;20039;-67
2024/01/24 08:29:15;;;;;;;2.83;0.95;;;10.10;99.90;;;;;;5102960;27;20035;-71
2024/01/24 08:31:41;;;;;;;0.47;0.30;;;10.20;99.90;;;;;;5090898;28;20069;-70
2024/01/24 08:34:07;;;;;;;7.65;0.70;;;10.10;99.90;;;;;;5091790;27;20044;-68
2024/01/24 08:36:32;;;;;;;5.72;0.75;;;10.00;99.90;;;;;;5094050;27;20052;-68
2024/01/24 08:38:58;;;;;;;0.10;0.10;;;10.00;99.90;;;;;;5091150;27;20266;-71
2024/01/24 08:41:24;;;;;;;0.05;0.05;;;10.00;99.90;;;;;;5094900;28;20564;-69
2024/01/24 08:43:50;;;;;;;2.08;1.05;;;10.00;99.90;;;;;;5070697;28;20058;-70
2024/01/24 08:46:15;;;;;;;12.93;1.85;;;10.00;99.90;;;;;;5098809;28;20134;-66
2024/01/24 08:48:41;;;;;;;1.45;1.33;;;10.10;99.90;;;;;;5091824;28;20036;-67
2024/01/24 08:51:07;;;;;;;0.00;0.00;;;10.00;99.90;;;;;;5090136;28;20047;-67
2024/01/24 08:53:33;;;;;;;11.57;1.42;;;10.00;99.90;;;;;;5079252;28;20054;-72
2024/01/24 08:55:58;;;;;;;1.13;0.70;;;10.10;99.90;;;;;;5089891;28;20459;-68
2024/01/24 08:58:24;;;;;;;1.83;0.93;;;10.00;99.90;;;;;;5092143;28;20463;-72
2024/01/24 09:00:50;;;;;;;0.20;0.20;;;10.10;99.90;;;;;;5089063;28;20510;-70
2024/01/24 09:03:16;;;;;;;0.32;0.22;;;10.00;99.90;;;;;;5091095;28;20428;-70
2024/01/24 09:05:41;;;;;;;1.42;1.33;;;10.00;99.90;;;;;;5091347;27;20050;-71
2024/01/24 09:08:08;;;;;;;0.82;0.35;;;10.00;99.90;;;;;;5091762;28;20053;-74
2024/01/24 09:10:33;;;;;;;0.65;0.63;;;10.00;99.90;;;;;;5086345;27;20047;-68
2024/01/24 09:12:59;;;;;;;2.92;1.48;;;10.10;99.90;;;;;;5093402;27;20041;-69
2024/01/24 09:15:25;;;;;;;1.02;0.77;;;10.10;99.90;;;;;;5091367;28;20428;-71
2024/01/24 09:17:50;;;;;;;7.32;0.52;;;10.10;99.90;;;;;;5088548;28;20050;-70
2024/01/24 09:20:16;;;;;;;0.52;0.52;;;10.10;99.90;;;;;;5082532;28;20035;-69
2024/01/24 09:22:41;;;;;;;1.23;0.68;;;10.10;99.90;;;;;;5069787;28;20162;-71
2024/01/24 09:25:07;;;;;;;3.22;1.05;;;10.10;99.90;;;;;;5093486;28;20092;-69
2024/01/24 09:27:33;;;;;;;0.10;0.10;;;10.10;99.90;;;;;;5065281;28;20031;-66
2024/01/24 09:29:58;;;;;;;0.20;0.20;;;10.10;99.90;;;;;;5093485;28;20074;-69
2024/01/24 09:32:24;;;;;;;0.10;0.10;;;10.10;99.90;;;;;;5097210;28;20063;-72
2024/01/24 09:34:49;;;;;;;5.50;1.13;;;10.10;99.90;;;;;;5082598;28;20050;-67
2024/01/24 09:37:17;;;;;;;1.58;0.50;;;10.10;99.90;;;;;;5110399;27;20039;-69
2024/01/24 09:39:43;;;;;;;3.35;1.20;;;10.00;99.90;;;;;;5091420;28;20039;-68
2024/01/24 09:42:18;;;;;;;1.77;0.57;;;10.00;99.90;;;;;;5091954;28;20435;-71
2024/01/24 09:44:50;;;;;;;5.22;0.68;;;9.90;99.90;;;;;;5090943;28;20044;-71
2024/01/24 09:47:17;;;;;;;0.32;0.32;;;10.10;99.90;;;;;;5090732;28;20039;-67
2024/01/24 09:49:43;;;;;;;0.70;0.70;;;10.10;99.90;;;;;;5092430;28;20051;-72
2024/01/24 09:52:10;;;;;;;0.30;0.30;;;10.20;99.90;;;;;;5074760;28;20045;-69
2024/01/24 09:54:36;;;;;;;0.28;0.28;;;10.20;99.90;;;;;;5090095;28;20047;-68
2024/01/24 09:57:02;;;;;;;0.20;0.20;;;10.30;99.90;;;;;;5089995;28;20050;-71
2024/01/24 09:59:28;;;;;;;0.75;0.75;;;10.30;99.90;;;;;;5076938;28;20042;-68
2024/01/24 10:01:53;;;;;;;14.60;0.38;;;10.30;99.90;;;;;;5088705;28;20474;-68
2024/01/24 10:04:20;;;;;;;12.65;1.13;;;10.30;99.90;;;;;;5093695;28;20386;-68
2024/01/24 10:06:48;;;;;;;2.95;2.28;;;10.30;99.90;;;;;;5089032;28;20043;-67
2024/01/24 10:09:14;;;;;;;5.60;2.03;;;10.40;99.90;;;;;;5081844;28;20047;-69
2024/01/24 10:11:39;;;;;;;5.40;1.35;;;10.30;99.90;;;;;;5091099;28;20040;-69
2024/01/24 10:14:07;;;;;;;0.47;0.20;;;10.40;99.90;;;;;;5094526;28;20047;-68
2024/01/24 10:16:32;;;;;;;4.25;0.80;;;10.40;99.90;;;;;;5092968;28;20418;-70
2024/01/24 10:18:58;;;;;;;0.20;0.20;;;10.50;99.90;;;;;;5078551;28;20027;-68
2024/01/24 10:21:25;;;;;;;5.22;2.20;;;10.50;99.90;;;;;;5097186;28;20047;-70
2024/01/24 10:23:55;;;;;;;4.63;1.50;;;10.50;99.90;;;;;;5096440;28;20398;-69
2024/01/24 10:26:21;;;;;;;1.77;1.10;;;10.50;99.90;;;;;;5085529;28;20044;-69
2024/01/24 10:28:49;;;;;;;0.28;0.28;;;10.40;99.90;;;;;;5093431;28;20040;-72
2024/01/24 10:31:14;;;;;;;0.30;0.17;;;10.50;99.90;;;;;;5094871;28;20062;-68
2024/01/24 10:33:40;;;;;;;1.10;0.85;;;10.50;99.90;;;;;;5094866;28;20040;-70
2024/01/24 10:36:08;;;;;;;1.00;0.90;;;10.50;99.90;;;;;;5092401;28;20048;-69
2024/01/24 10:38:37;;;;;;;0.00;0.00;;;10.50;99.90;;;;;;5081950;28;20047;-67
2024/01/24 10:41:02;;;;;;;0.63;0.63;;;10.40;99.90;;;;;;5080008;28;20040;-70
2024/01/24 10:43:28;;;;;;;3.08;0.65;;;10.40;99.90;;;;;;5104838;28;20447;-69
2024/01/24 10:45:55;;;;;;;0.22;0.20;;;10.40;99.90;;;;;;5089112;28;20036;-68
2024/01/24 10:48:21;;;;;;;0.30;0.30;;;10.50;99.90;;;;;;5091476;28;20468;-68
2024/01/24 10:50:47;;;;;;;0.80;0.80;;;10.50;99.90;;;;;;5099065;28;20135;-67
2024/01/24 10:53:14;;;;;;;1.50;1.40;;;10.50;99.90;;;;;;5088964;28;20043;-70
2024/01/24 10:55:43;;;;;;;0.88;0.65;;;10.40;99.90;;;;;;5093931;27;20127;-67
2024/01/24 10:58:10;;;;;;;0.73;0.73;;;10.50;99.90;;;;;;5094842;28;20088;-68
2024/01/24 11:00:37;;;;;;;1.17;0.40;;;10.50;99.90;;;;;;5099926;28;20040;-68
2024/01/24 11:03:03;;;;;;;0.30;0.30;;;10.50;99.90;;;;;;5090567;28;20390;-70
2024/01/24 11:05:32;;;;;;;2.97;1.27;;;10.40;99.90;;;;;;5100680;27;20041;-67
2024/01/24 11:08:23;;;;;;;0.35;0.35;;;10.50;99.90;;;;;;5095278;28;20044;-69
2024/01/24 11:10:50;;;;;;;1.55;1.05;;;10.50;99.90;;;;;;5096489;28;20538;-68
2024/01/24 11:13:18;;;;;;;0.47;0.40;;;10.50;99.90;;;;;;5094655;28;20071;-71
2024/01/24 11:15:46;;;;;;;1.38;0.20;;;10.50;99.90;;;;;;5093334;28;20066;-69
2024/01/24 11:18:22;;;;;;;0.90;0.85;;;10.50;99.90;;;;;;5091696;27;20036;-68
2024/01/24 11:20:56;;;;;;;0.70;0.50;;;10.50;99.90;;;;;;5073013;27;20027;-70
2024/01/24 11:23:40;;;;;;;6.20;0.55;;;10.50;99.90;;;;;;5112100;27;20551;-68
2024/01/24 11:26:29;;;;;;;1.55;0.22;;;10.50;99.90;;;;;;5085627;28;20101;-70
2024/01/24 11:29:05;;;;;;;0.95;0.52;;;10.60;99.90;;;;;;5088437;28;20524;-68
2024/01/24 11:31:39;;;;;;;1.50;0.22;;;10.60;99.90;;;;;;5090440;28;20040;-70
2024/01/24 11:34:13;;;;;;;0.00;0.00;;;10.50;99.90;;;;;;5090322;28;20100;-68
2024/01/24 11:36:55;;;;;;;0.20;0.20;;;10.50;99.90;;;;;;5082176;27;20127;-70
2024/01/24 11:39:30;;;;;;;0.00;0.00;;;10.50;99.90;;;;;;5098921;27;20039;-73
2024/01/24 11:42:25;;;;;;;2.05;1.35;;;10.50;99.90;;;;;;5086737;28;20040;-67
2024/01/24 11:45:11;;;;;;;1.10;1.10;;;10.60;99.90;;;;;;5075036;28;20097;-69
2024/01/24 11:47:38;;;;;;;1.65;0.25;;;10.60;99.90;;;;;;5094208;28;20129;-72
2024/01/24 11:50:04;;;;;;;6.82;1.17;;;10.60;99.90;;;;;;5092695;28;20494;-68
2024/01/24 11:52:29;;;;;;;0.25;0.25;;;10.70;99.90;;;;;;5085919;28;20083;-70
2024/01/24 11:54:55;;;;;;;25.58;1.55;;;10.80;99.90;;;;;;5077568;27;20469;-68
2024/01/24 11:57:20;;;;;;;0.40;0.40;;;10.90;99.90;;;;;;5091032;28;20126;-69
2024/01/24 11:59:50;;;;;;;2.92;0.85;;;11.00;99.90;;;;;;5078549;27;20395;-75
2024/01/24 12:02:16;;;;;;;3.20;1.92;;;11.10;99.90;;;;;;5093890;28;20501;-73
2024/01/24 12:04:44;;;;;;;0.55;0.55;;;11.00;99.90;;;;;;5085105;28;20031;-72
2024/01/24 12:07:10;;;;;;;0.73;0.73;;;11.10;99.90;;;;;;5093952;27;20127;-69
2024/01/24 12:09:36;;;;;;;3.15;0.60;;;11.00;99.90;;;;;;5082940;28;20123;-69
2024/01/24 12:12:02;;;;;;;0.73;0.73;;;10.90;99.90;;;;;;5089461;28;20390;-70
2024/01/24 12:14:28;;;;;;;1.10;0.13;;;11.00;99.90;;;;;;5093036;28;20119;-68
2024/01/24 12:16:54;;;;;;;0.57;0.57;;;10.90;99.90;;;;;;5085109;28;20115;-68
2024/01/24 12:19:20;;;;;;;0.20;0.20;;;10.80;99.90;;;;;;5089739;27;20130;-69
2024/01/24 12:21:46;;;;;;;1.85;0.15;;;10.90;99.90;;;;;;5099316;28;20474;-68
2024/01/24 12:24:12;;;;;;;5.30;1.73;;;10.90;99.90;;;;;;5091944;28;20071;-67
2024/01/24 12:26:38;;;;;;;0.20;0.17;;;10.80;99.90;;;;;;5086009;28;20440;-72
2024/01/24 12:29:05;;;;;;;4.47;0.95;;;10.80;99.90;;;;;;5091973;28;20036;-69
2024/01/24 12:31:30;;;;;;;0.50;0.17;;;10.80;99.90;;;;;;5092777;28;20084;-72
2024/01/24 12:33:56;;;;;;;4.57;0.95;;;10.80;99.90;;;;;;5087381;27;20047;-71
2024/01/24 12:36:26;;;;;;;3.70;1.75;;;11.00;99.90;;;;;;5088800;28;20092;-68
2024/01/24 12:38:54;;;;;;;3.17;2.95;;;11.00;99.90;;;;;;5085229;28;20042;-70
2024/01/24 12:41:21;;;;;;;0.38;0.38;;;10.90;99.90;;;;;;5089846;28;20505;-69